Time;durP1;ratioP1;P1;durP2;ratioP2;P2;SDS_P1;SDS_P2;PMS_P1;PMS_P2;Temp;Humidity;BMP_temperature;BMP_pressure;BME280_temperature;BME280_humidity;BME280_pressure;Samples;Min_cycle;Max_cycle;Signal;HPM_P1;HPM_P2
2022/03/21 00:02:05;;;;;;;44.80;31.92;;;4.00;90.40;;;;;;5040787;28;20072;-46
2022/03/21 00:04:32;;;;;;;42.38;32.28;;;4.00;90.50;;;;;;5044329;28;20555;-50
2022/03/21 00:06:59;;;;;;;45.22;32.15;;;4.00;90.50;;;;;;5040881;28;20057;-50
2022/03/21 00:09:26;;;;;;;44.17;31.80;;;3.90;90.60;;;;;;5043323;28;20033;-48
2022/03/21 00:11:53;;;;;;;42.50;31.73;;;3.90;90.60;;;;;;5045514;28;20120;-50
2022/03/21 00:14:20;;;;;;;46.05;31.40;;;3.80;90.50;;;;;;5042023;28;20179;-51
2022/03/21 00:16:46;;;;;;;44.22;31.73;;;3.80;90.60;;;;;;5043082;28;20116;-52
2022/03/21 00:19:13;;;;;;;42.22;31.55;;;3.80;90.60;;;;;;5045454;28;20037;-47
2022/03/21 00:21:40;;;;;;;46.47;32.58;;;3.70;90.70;;;;;;5040362;28;20504;-50
2022/03/21 00:24:06;;;;;;;43.40;32.90;;;3.70;90.60;;;;;;5045501;28;20056;-49
2022/03/21 00:26:34;;;;;;;44.35;31.88;;;3.70;90.80;;;;;;5045825;28;20064;-45
2022/03/21 00:29:08;;;;;;;46.35;33.38;;;3.60;90.80;;;;;;5044587;28;20047;-43
2022/03/21 00:31:36;;;;;;;48.33;32.33;;;3.60;91.00;;;;;;5034939;28;20076;-44
2022/03/21 00:34:03;;;;;;;44.05;31.08;;;3.60;91.10;;;;;;5047293;28;20041;-44
2022/03/21 00:36:30;;;;;;;44.30;31.27;;;3.50;91.40;;;;;;5033207;28;20065;-45
2022/03/21 00:39:13;;;;;;;48.33;32.22;;;3.50;91.30;;;;;;5035843;28;20374;-47
2022/03/21 00:41:40;;;;;;;47.80;33.53;;;3.50;91.30;;;;;;5034393;28;20098;-47
2022/03/21 00:44:08;;;;;;;47.97;33.42;;;3.50;91.40;;;;;;5034404;28;20186;-46
2022/03/21 00:46:34;;;;;;;47.30;33.17;;;3.40;91.30;;;;;;5034342;28;20545;-47
2022/03/21 00:49:01;;;;;;;46.45;32.95;;;3.40;91.10;;;;;;5034046;28;20045;-48
2022/03/21 00:51:28;;;;;;;40.85;31.77;;;3.40;90.90;;;;;;5034232;28;20107;-46
2022/03/21 00:53:55;;;;;;;44.08;32.10;;;3.30;91.30;;;;;;5034254;28;20048;-44
2022/03/21 00:56:21;;;;;;;46.05;33.42;;;3.30;91.30;;;;;;5034132;28;20507;-43
2022/03/21 00:58:48;;;;;;;47.30;33.60;;;3.20;91.50;;;;;;5034215;28;20046;-45
2022/03/21 01:01:15;;;;;;;47.25;32.33;;;3.20;91.60;;;;;;5033912;28;20064;-46
2022/03/21 01:03:42;;;;;;;47.00;32.60;;;3.10;91.50;;;;;;5032664;28;20046;-50
2022/03/21 01:06:09;;;;;;;45.17;33.22;;;3.10;91.50;;;;;;5033819;28;20076;-46
2022/03/21 01:08:35;;;;;;;42.10;31.88;;;3.10;91.40;;;;;;5036570;28;20075;-45
2022/03/21 01:11:02;;;;;;;44.60;31.70;;;3.10;91.50;;;;;;5033883;28;20065;-46
2022/03/21 01:13:29;;;;;;;43.72;32.63;;;3.00;91.70;;;;;;5033928;28;20033;-46
2022/03/21 01:15:56;;;;;;;51.42;33.58;;;3.00;91.70;;;;;;5036680;28;20037;-43
2022/03/21 01:18:22;;;;;;;44.45;31.85;;;2.90;91.70;;;;;;5033669;28;20182;-48
2022/03/21 01:20:49;;;;;;;45.10;32.20;;;2.90;91.70;;;;;;5032433;28;20091;-44
2022/03/21 01:23:16;;;;;;;46.30;32.55;;;2.90;91.80;;;;;;5027628;28;20037;-45
2022/03/21 01:25:43;;;;;;;45.05;31.65;;;2.80;91.80;;;;;;5027249;28;20041;-45
2022/03/21 01:28:09;;;;;;;53.20;34.58;;;2.80;92.00;;;;;;5033575;28;20040;-45
2022/03/21 01:30:36;;;;;;;45.90;32.90;;;2.80;91.90;;;;;;5033759;28;20069;-45
2022/03/21 01:33:03;;;;;;;48.60;34.30;;;2.80;92.10;;;;;;5033507;28;20079;-43
2022/03/21 01:35:30;;;;;;;53.50;33.90;;;2.70;92.20;;;;;;5033201;28;20088;-44
2022/03/21 01:37:57;;;;;;;46.13;31.85;;;2.70;92.20;;;;;;5033306;28;20037;-51
2022/03/21 01:40:23;;;;;;;45.65;33.33;;;2.70;92.40;;;;;;5033734;28;20072;-44
2022/03/21 01:42:50;;;;;;;50.13;34.28;;;2.70;92.50;;;;;;5033400;28;20049;-43
2022/03/21 01:45:17;;;;;;;49.05;33.42;;;2.70;92.30;;;;;;5034144;28;20080;-46
2022/03/21 01:47:43;;;;;;;47.45;34.15;;;2.70;92.50;;;;;;5033293;28;20064;-47
2022/03/21 01:50:10;;;;;;;49.42;34.03;;;2.70;92.60;;;;;;5033118;28;20121;-50
2022/03/21 01:52:37;;;;;;;47.55;33.97;;;2.70;92.50;;;;;;5031983;28;20060;-48
2022/03/21 01:57:49;;;;;;;54.60;35.22;;;2.70;92.60;;;;;;5033029;28;20061;-46
2022/03/21 02:00:16;;;;;;;54.28;35.35;;;2.70;92.50;;;;;;5033187;28;20398;-48
2022/03/21 02:02:44;;;;;;;52.72;35.67;;;2.60;92.60;;;;;;5033031;28;20045;-45
2022/03/21 02:05:11;;;;;;;52.10;35.15;;;2.60;92.50;;;;;;5033097;28;20068;-43
2022/03/21 02:07:38;;;;;;;47.30;34.63;;;2.50;92.70;;;;;;5032940;28;20042;-47
2022/03/21 02:10:04;;;;;;;53.42;35.67;;;2.50;92.80;;;;;;5032908;28;20116;-44
2022/03/21 02:12:32;;;;;;;51.22;34.42;;;2.40;92.90;;;;;;5033250;28;20037;-46
2022/03/21 02:14:58;;;;;;;51.00;35.00;;;2.40;93.10;;;;;;5034730;28;20065;-47
2022/03/21 02:17:25;;;;;;;46.42;34.17;;;2.30;93.20;;;;;;5032929;28;20049;-51
2022/03/21 02:19:52;;;;;;;49.88;33.97;;;2.30;93.10;;;;;;5032853;28;20136;-46
2022/03/21 02:22:19;;;;;;;45.58;34.10;;;2.30;93.20;;;;;;5032971;28;20488;-43
2022/03/21 02:24:50;;;;;;;47.60;33.78;;;2.20;93.30;;;;;;5032706;28;20050;-47
2022/03/21 02:27:17;;;;;;;44.03;33.35;;;2.20;93.30;;;;;;5032851;28;20037;-44
2022/03/21 02:29:44;;;;;;;47.00;32.42;;;2.20;93.40;;;;;;5032704;28;20129;-50
2022/03/21 02:32:10;;;;;;;45.85;31.63;;;2.20;93.20;;;;;;5032837;28;20037;-47
2022/03/21 02:34:37;;;;;;;43.90;33.65;;;2.20;93.40;;;;;;5033011;28;20538;-48
2022/03/21 02:37:04;;;;;;;44.20;33.78;;;2.20;93.30;;;;;;5032839;28;20045;-46
2022/03/21 02:39:30;;;;;;;47.13;34.58;;;2.20;93.20;;;;;;5032613;28;20041;-48
2022/03/21 02:41:57;;;;;;;52.88;32.95;;;2.10;93.40;;;;;;5032783;28;20045;-50
2022/03/21 02:44:24;;;;;;;50.85;34.53;;;2.10;93.30;;;;;;5038055;28;20075;-47
2022/03/21 02:46:51;;;;;;;46.92;33.92;;;2.10;93.40;;;;;;5032723;28;20516;-49
2022/03/21 02:49:17;;;;;;;47.03;34.85;;;2.10;93.60;;;;;;5035250;28;20095;-45
2022/03/21 02:51:44;;;;;;;46.17;35.08;;;2.10;93.60;;;;;;5036470;28;20076;-51
2022/03/21 02:54:13;;;;;;;44.75;33.30;;;2.10;93.60;;;;;;5035427;28;20041;-51
2022/03/21 02:56:40;;;;;;;50.03;35.15;;;2.10;93.60;;;;;;5036652;28;20041;-50
2022/03/21 02:59:07;;;;;;;46.17;34.65;;;2.00;93.80;;;;;;5036466;28;20072;-46
2022/03/21 03:01:34;;;;;;;51.60;35.88;;;2.00;93.80;;;;;;5036295;28;20544;-43
2022/03/21 03:04:01;;;;;;;51.25;34.75;;;1.90;93.90;;;;;;5035018;28;20045;-48
2022/03/21 03:06:27;;;;;;;49.60;34.70;;;1.90;94.00;;;;;;5036011;28;20064;-49
2022/03/21 03:08:54;;;;;;;48.03;34.28;;;1.90;94.10;;;;;;5036259;28;20460;-44
2022/03/21 03:11:21;;;;;;;46.15;34.03;;;1.80;94.00;;;;;;5036066;28;20038;-45
2022/03/21 03:13:47;;;;;;;47.67;34.50;;;1.90;94.00;;;;;;5035540;28;20037;-45
2022/03/21 03:16:14;;;;;;;50.10;35.85;;;1.80;94.00;;;;;;5035912;28;20037;-47
2022/03/21 03:18:44;;;;;;;52.13;36.20;;;1.80;94.10;;;;;;5036069;28;20129;-46
2022/03/21 03:21:11;;;;;;;50.00;36.03;;;1.80;94.10;;;;;;5029798;28;20100;-47
2022/03/21 03:23:38;;;;;;;56.30;37.45;;;1.80;94.10;;;;;;5035913;28;20504;-44
2022/03/21 03:26:04;;;;;;;51.92;36.33;;;1.80;94.10;;;;;;5036002;28;20103;-42
2022/03/21 03:28:31;;;;;;;48.35;34.05;;;1.80;94.20;;;;;;5035855;28;20519;-42
2022/03/21 03:31:10;;;;;;;50.20;36.38;;;1.70;94.20;;;;;;5035768;28;20038;-45
2022/03/21 03:33:37;;;;;;;49.67;34.67;;;1.70;94.00;;;;;;5035633;28;20479;-48
2022/03/21 03:36:04;;;;;;;49.03;35.63;;;1.70;94.30;;;;;;5035759;28;20049;-47
2022/03/21 03:38:31;;;;;;;49.22;36.47;;;1.60;94.40;;;;;;5035740;28;20072;-44
2022/03/21 03:40:57;;;;;;;53.42;36.65;;;1.60;94.50;;;;;;5035621;28;20045;-50
2022/03/21 03:43:24;;;;;;;50.83;36.45;;;1.60;94.60;;;;;;5035607;28;20088;-48
2022/03/21 03:45:52;;;;;;;52.00;36.38;;;1.50;94.60;;;;;;5038205;28;20050;-47
2022/03/21 03:48:20;;;;;;;53.00;35.65;;;1.50;94.70;;;;;;5035426;28;20041;-45
2022/03/21 03:50:47;;;;;;;52.63;35.97;;;1.50;94.70;;;;;;5035407;28;20409;-45
2022/03/21 03:53:13;;;;;;;52.50;36.33;;;1.50;94.80;;;;;;5034383;28;20073;-50
2022/03/21 03:55:40;;;;;;;55.60;36.00;;;1.40;94.70;;;;;;5035404;28;20042;-45
2022/03/21 03:58:07;;;;;;;47.15;35.38;;;1.50;94.70;;;;;;5035232;28;20124;-50
2022/03/21 04:00:34;;;;;;;49.55;34.67;;;1.50;94.60;;;;;;5034835;28;20041;-47
2022/03/21 04:05:47;;;;;;;50.58;35.03;;;1.50;94.80;;;;;;5033717;28;20049;-46
2022/03/21 04:08:14;;;;;;;47.55;36.05;;;1.40;94.70;;;;;;5035144;28;20042;-46
2022/03/21 04:10:40;;;;;;;50.63;35.45;;;1.40;94.90;;;;;;5035048;28;20049;-46
2022/03/21 04:13:07;;;;;;;49.42;35.30;;;1.40;94.80;;;;;;5035596;28;20061;-49
2022/03/21 04:15:34;;;;;;;51.25;36.45;;;1.30;95.00;;;;;;5038126;28;20041;-48
2022/03/21 04:18:01;;;;;;;49.80;36.28;;;1.30;95.10;;;;;;5034940;28;20065;-48
2022/03/21 04:20:31;;;;;;;49.45;36.90;;;1.30;95.10;;;;;;5033633;28;20054;-47
2022/03/21 04:22:58;;;;;;;45.72;35.17;;;1.30;95.10;;;;;;5034994;28;20133;-47
2022/03/21 04:25:24;;;;;;;53.25;38.45;;;1.20;95.20;;;;;;5035245;28;20126;-50
2022/03/21 04:27:51;;;;;;;51.60;35.88;;;1.20;95.00;;;;;;5034729;28;20049;-48
2022/03/21 04:30:18;;;;;;;50.95;36.78;;;1.20;95.30;;;;;;5034599;28;20124;-47
2022/03/21 04:32:45;;;;;;;52.08;36.17;;;1.10;95.10;;;;;;5034687;28;20044;-53
2022/03/21 04:35:11;;;;;;;49.40;35.55;;;1.10;95.40;;;;;;5034956;28;20116;-46
2022/03/21 04:37:38;;;;;;;53.05;37.53;;;1.10;95.20;;;;;;5038507;28;20404;-45
2022/03/21 04:40:05;;;;;;;51.17;36.13;;;1.10;95.40;;;;;;5034416;28;20132;-48
2022/03/21 04:42:32;;;;;;;52.45;38.50;;;1.10;95.30;;;;;;5034418;28;20076;-43
2022/03/21 04:44:58;;;;;;;49.97;35.60;;;1.10;95.30;;;;;;5034494;28;20092;-45
2022/03/21 04:47:25;;;;;;;51.08;36.60;;;1.10;95.40;;;;;;5034363;28;20492;-46
2022/03/21 04:49:52;;;;;;;54.38;37.92;;;1.10;95.50;;;;;;5034242;28;20107;-50
2022/03/21 04:52:18;;;;;;;55.10;38.63;;;1.10;95.50;;;;;;5034324;28;20041;-47
2022/03/21 04:54:45;;;;;;;57.25;38.65;;;1.10;95.50;;;;;;5034245;28;20091;-48
2022/03/21 04:57:12;;;;;;;55.20;38.25;;;1.10;95.70;;;;;;5034167;28;20048;-52
2022/03/21 04:59:38;;;;;;;55.67;37.53;;;1.10;95.60;;;;;;5034236;28;20073;-49
2022/03/21 05:02:06;;;;;;;52.50;37.85;;;1.10;95.50;;;;;;5034102;28;20057;-47
2022/03/21 05:04:33;;;;;;;54.75;37.85;;;1.00;95.50;;;;;;5027912;28;20052;-45
2022/03/21 05:07:00;;;;;;;55.70;39.35;;;1.00;95.60;;;;;;5035537;28;20088;-47
2022/03/21 05:09:26;;;;;;;51.63;38.00;;;1.00;95.50;;;;;;5027455;28;20048;-45
2022/03/21 05:11:53;;;;;;;53.53;38.00;;;1.10;95.30;;;;;;5026737;28;20049;-47
2022/03/21 05:14:20;;;;;;;57.25;38.38;;;1.10;95.50;;;;;;5036513;28;20037;-46
2022/03/21 05:16:46;;;;;;;55.13;38.53;;;1.00;95.60;;;;;;5048754;28;20452;-45
2022/03/21 05:19:14;;;;;;;57.28;38.92;;;1.00;95.60;;;;;;5033724;28;20069;-45
2022/03/21 05:21:40;;;;;;;55.42;36.47;;;1.00;95.70;;;;;;5033687;28;20045;-42
2022/03/21 05:32:24;;;;;;;58.17;38.95;;;1.00;96.00;;;;;;5033555;28;20046;-48
2022/03/21 05:37:36;;;;;;;58.70;41.53;;;1.00;96.30;;;;;;5033452;28;20069;-48
2022/03/21 05:42:48;;;;;;;59.30;42.97;;;1.10;96.40;;;;;;5033342;28;20079;-52
2022/03/21 05:45:19;;;;;;;60.70;42.03;;;1.10;96.70;;;;;;5033430;28;20041;-47
2022/03/21 05:50:32;;;;;;;65.97;43.90;;;1.10;96.70;;;;;;5033141;28;20100;-45
2022/03/21 05:52:59;;;;;;;67.47;45.58;;;1.10;96.70;;;;;;5033206;28;20124;-48
2022/03/21 05:55:26;;;;;;;66.53;47.63;;;1.10;96.90;;;;;;5033133;28;20038;-46
2022/03/21 05:57:52;;;;;;;66.40;46.42;;;1.10;96.90;;;;;;5033396;28;20060;-45
2022/03/21 06:00:22;;;;;;;69.40;48.30;;;1.10;97.00;;;;;;5026781;28;20041;-45
2022/03/21 06:02:51;;;;;;;68.97;46.22;;;1.10;97.10;;;;;;5031957;28;20065;-47
2022/03/21 06:05:18;;;;;;;68.72;47.33;;;1.20;97.10;;;;;;5033056;28;20049;-51
2022/03/21 06:07:45;;;;;;;68.95;48.55;;;1.20;97.00;;;;;;5032947;28;20559;-47
2022/03/21 06:10:12;;;;;;;76.57;48.97;;;1.30;96.90;;;;;;5032924;28;20042;-44
2022/03/21 06:12:39;;;;;;;71.68;49.08;;;1.30;97.10;;;;;;5031861;28;20038;-49
2022/03/21 06:15:06;;;;;;;67.15;47.72;;;1.30;97.20;;;;;;5028436;28;20045;-44
2022/03/21 06:17:32;;;;;;;73.30;50.95;;;1.30;97.10;;;;;;5033017;28;20069;-44
2022/03/21 06:19:59;;;;;;;76.88;48.25;;;1.30;97.20;;;;;;5032830;28;20042;-45
2022/03/21 06:22:26;;;;;;;70.78;48.45;;;1.40;97.30;;;;;;5034190;28;20536;-51
2022/03/21 06:24:52;;;;;;;72.97;47.42;;;1.30;97.30;;;;;;5037024;28;20099;-50
2022/03/21 06:27:19;;;;;;;67.95;47.35;;;1.40;97.20;;;;;;5037205;28;20444;-49
2022/03/21 06:29:46;;;;;;;70.22;48.08;;;1.40;96.90;;;;;;5036867;28;20485;-45
2022/03/21 06:32:14;;;;;;;66.63;48.38;;;1.50;96.80;;;;;;5036788;28;20124;-46
2022/03/21 06:34:40;;;;;;;70.25;48.85;;;1.50;96.70;;;;;;5036898;28;20043;-47
2022/03/21 06:37:08;;;;;;;69.22;49.28;;;1.50;96.70;;;;;;5036804;28;20045;-46
2022/03/21 06:39:35;;;;;;;73.35;50.67;;;1.50;96.90;;;;;;5036849;28;20045;-50
2022/03/21 06:42:02;;;;;;;66.35;47.47;;;1.50;96.90;;;;;;5036935;28;20451;-51
2022/03/21 06:44:29;;;;;;;71.10;49.15;;;1.50;96.80;;;;;;5041280;28;20057;-51
2022/03/21 06:46:57;;;;;;;72.57;50.08;;;1.60;96.90;;;;;;5037450;28;20057;-46
2022/03/21 06:49:29;;;;;;;70.80;49.25;;;1.60;97.00;;;;;;5035451;28;20037;-47
2022/03/21 06:51:56;;;;;;;67.82;49.03;;;1.60;97.00;;;;;;5036318;28;20048;-50
2022/03/21 06:54:23;;;;;;;73.10;51.22;;;1.70;97.10;;;;;;5036552;28;20033;-52
2022/03/21 06:56:50;;;;;;;69.43;48.63;;;1.70;97.40;;;;;;5036513;28;20044;-50
2022/03/21 06:59:16;;;;;;;72.78;51.33;;;1.80;97.30;;;;;;5036323;28;20432;-45
2022/03/21 07:01:43;;;;;;;74.28;50.92;;;1.90;97.40;;;;;;5036410;28;20041;-45
2022/03/21 07:04:10;;;;;;;76.00;53.85;;;2.00;97.60;;;;;;5036251;28;20557;-47
2022/03/21 07:06:37;;;;;;;75.78;53.55;;;2.10;97.80;;;;;;5034869;28;20564;-50
2022/03/21 07:09:04;;;;;;;75.25;53.45;;;2.20;97.80;;;;;;5034951;28;20045;-49
2022/03/21 07:11:32;;;;;;;83.10;56.00;;;2.30;97.80;;;;;;5036117;28;20037;-47
2022/03/21 07:13:58;;;;;;;81.95;55.90;;;2.40;98.00;;;;;;5035462;28;20037;-47
2022/03/21 07:16:25;;;;;;;84.15;57.15;;;2.50;98.20;;;;;;5035266;28;20045;-44
2022/03/21 07:18:52;;;;;;;77.38;55.58;;;2.50;98.00;;;;;;5035971;28;20155;-47
2022/03/21 07:21:19;;;;;;;80.85;56.08;;;2.60;98.20;;;;;;5034513;28;20046;-46
2022/03/21 07:23:46;;;;;;;81.55;56.15;;;2.70;98.10;;;;;;5035939;28;20079;-47
2022/03/21 07:26:13;;;;;;;76.25;54.88;;;2.70;98.00;;;;;;5035906;28;20045;-46
2022/03/21 07:28:39;;;;;;;79.78;57.13;;;2.80;98.10;;;;;;5035876;28;20104;-42
2022/03/21 07:31:26;;;;;;;80.15;56.63;;;2.90;98.10;;;;;;5035809;28;20436;-45
2022/03/21 07:33:53;;;;;;;85.68;57.95;;;3.00;98.00;;;;;;5035054;28;20432;-44
2022/03/21 07:36:20;;;;;;;80.03;56.92;;;3.10;98.10;;;;;;5035549;28;20049;-44
2022/03/21 07:38:52;;;;;;;79.65;56.58;;;3.10;98.10;;;;;;5035681;28;20048;-50
2022/03/21 07:41:20;;;;;;;78.05;56.38;;;3.20;98.00;;;;;;5035526;28;20103;-45
2022/03/21 07:43:46;;;;;;;76.45;55.85;;;3.30;98.00;;;;;;5035407;28;20068;-46
2022/03/21 07:48:59;;;;;;;73.35;53.67;;;3.50;97.90;;;;;;5035532;28;20132;-47
2022/03/21 07:51:25;;;;;;;75.78;55.88;;;3.60;97.80;;;;;;5035479;28;20045;-44
2022/03/21 07:53:52;;;;;;;76.95;56.55;;;3.70;97.70;;;;;;5035495;28;20400;-51
2022/03/21 07:56:21;;;;;;;77.07;54.58;;;3.80;97.60;;;;;;5035344;28;20076;-48
2022/03/21 07:58:48;;;;;;;72.32;54.58;;;3.90;97.50;;;;;;5033987;28;20037;-46
2022/03/21 08:01:15;;;;;;;74.80;53.88;;;4.00;97.30;;;;;;5034185;28;20045;-50
2022/03/21 08:03:43;;;;;;;79.28;58.58;;;4.10;97.30;;;;;;5035198;28;20052;-49
2022/03/21 08:06:13;;;;;;;76.47;59.78;;;4.20;97.40;;;;;;5033873;28;20132;-45
2022/03/21 08:08:40;;;;;;;87.03;61.55;;;4.30;97.10;;;;;;5036817;28;20053;-47
2022/03/21 08:11:07;;;;;;;77.50;60.03;;;4.40;97.10;;;;;;5034844;28;20116;-45
2022/03/21 08:13:33;;;;;;;78.13;59.97;;;4.50;97.10;;;;;;5034936;28;20045;-45
2022/03/21 08:16:02;;;;;;;73.30;56.03;;;4.60;96.90;;;;;;5039112;28;20080;-45
2022/03/21 08:18:32;;;;;;;76.88;56.22;;;4.70;96.80;;;;;;5034926;28;20037;-45
2022/03/21 08:20:58;;;;;;;73.75;55.58;;;4.80;96.80;;;;;;5034779;28;20075;-49
2022/03/21 08:23:25;;;;;;;74.88;55.60;;;4.90;96.80;;;;;;5034632;28;20122;-51
2022/03/21 08:25:56;;;;;;;71.70;54.05;;;5.00;96.70;;;;;;5034682;28;20099;-48
2022/03/21 08:28:22;;;;;;;68.72;55.33;;;5.20;96.60;;;;;;5034760;28;20041;-50
2022/03/21 08:30:49;;;;;;;71.47;54.33;;;5.30;96.50;;;;;;5034622;28;20069;-44
2022/03/21 08:33:16;;;;;;;67.00;52.30;;;5.40;96.40;;;;;;5034658;28;20038;-45
2022/03/21 08:35:43;;;;;;;68.50;52.42;;;5.40;96.30;;;;;;5034596;28;20036;-49
2022/03/21 08:38:10;;;;;;;69.22;53.72;;;5.50;96.40;;;;;;5034402;28;20048;-52
2022/03/21 08:40:36;;;;;;;71.13;52.55;;;5.60;96.00;;;;;;5034469;28;20037;-48
2022/03/21 08:43:03;;;;;;;65.97;51.80;;;5.70;95.70;;;;;;5034382;28;20045;-50
2022/03/21 08:45:30;;;;;;;70.68;54.13;;;5.80;95.70;;;;;;5034191;28;20048;-53
2022/03/21 08:47:57;;;;;;;63.85;50.80;;;5.90;95.50;;;;;;5034318;28;20045;-47
2022/03/21 08:50:26;;;;;;;63.28;49.70;;;6.00;95.30;;;;;;5034212;28;20121;-47
2022/03/21 08:52:54;;;;;;;64.53;51.42;;;6.10;95.10;;;;;;5034179;28;20048;-43
2022/03/21 08:55:20;;;;;;;66.82;49.42;;;6.20;95.10;;;;;;5034259;28;20087;-45
2022/03/21 08:57:47;;;;;;;62.17;50.25;;;6.30;94.80;;;;;;5034147;28;20037;-44
2022/03/21 09:00:14;;;;;;;62.45;48.30;;;6.40;94.60;;;;;;5034154;28;20111;-45
2022/03/21 09:02:41;;;;;;;62.65;48.78;;;6.50;94.30;;;;;;5033993;28;20053;-48
2022/03/21 09:05:12;;;;;;;61.03;47.35;;;6.60;94.20;;;;;;5033861;28;20113;-45
2022/03/21 09:07:39;;;;;;;63.63;48.30;;;6.70;94.00;;;;;;5032926;28;20049;-47
2022/03/21 09:10:06;;;;;;;63.90;47.50;;;6.80;93.70;;;;;;5033976;28;20092;-45
2022/03/21 09:12:33;;;;;;;58.45;45.13;;;6.90;93.90;;;;;;5033823;28;20160;-45
2022/03/21 09:14:59;;;;;;;53.78;43.25;;;7.00;93.50;;;;;;5035223;28;20362;-46
2022/03/21 09:17:28;;;;;;;58.25;43.85;;;7.10;93.20;;;;;;5033929;28;20048;-48
2022/03/21 09:19:55;;;;;;;63.25;42.50;;;7.20;93.00;;;;;;5033708;28;20493;-46
2022/03/21 09:22:22;;;;;;;47.92;39.08;;;7.30;92.50;;;;;;5033802;28;20049;-46
2022/03/21 09:24:49;;;;;;;50.63;37.47;;;7.40;92.40;;;;;;5033889;28;20048;-45
2022/03/21 09:27:16;;;;;;;43.35;36.53;;;7.60;92.00;;;;;;5033977;28;20120;-50
2022/03/21 09:29:43;;;;;;;39.60;31.58;;;7.80;91.40;;;;;;5034038;28;20045;-51
2022/03/21 09:32:10;;;;;;;35.65;28.17;;;7.90;90.40;;;;;;5033667;28;20048;-47
2022/03/21 09:34:39;;;;;;;34.90;27.38;;;8.10;89.30;;;;;;5033592;28;20042;-46
2022/03/21 09:37:06;;;;;;;34.08;26.05;;;8.20;87.80;;;;;;5033431;28;20053;-46
2022/03/21 09:39:33;;;;;;;35.85;25.83;;;8.20;87.20;;;;;;5033340;28;20041;-45
2022/03/21 09:42:00;;;;;;;32.20;24.85;;;8.40;86.30;;;;;;5033437;28;20048;-45
2022/03/21 09:44:26;;;;;;;36.03;25.77;;;8.40;85.20;;;;;;5036134;28;20091;-48
2022/03/21 09:46:53;;;;;;;34.13;25.52;;;8.60;84.40;;;;;;5034858;28;20045;-45
2022/03/21 09:49:20;;;;;;;32.70;24.60;;;8.70;83.90;;;;;;5033230;28;20072;-47
2022/03/21 09:51:46;;;;;;;34.22;23.23;;;8.80;83.10;;;;;;5033201;28;20550;-46
2022/03/21 09:54:13;;;;;;;29.80;23.85;;;8.90;82.80;;;;;;5033219;28;20091;-47
2022/03/21 09:56:40;;;;;;;32.78;24.80;;;8.90;83.60;;;;;;5032877;28;20037;-44
2022/03/21 09:59:08;;;;;;;30.42;22.77;;;9.00;82.80;;;;;;5033142;28;20128;-49
2022/03/21 10:01:36;;;;;;;30.13;23.10;;;9.10;81.90;;;;;;5033067;28;20393;-46
2022/03/21 10:04:03;;;;;;;31.27;21.70;;;9.20;81.80;;;;;;5033085;28;20068;-44
2022/03/21 10:06:32;;;;;;;27.27;22.15;;;9.20;81.30;;;;;;5032978;28;20049;-49
2022/03/21 10:09:00;;;;;;;28.73;21.88;;;9.40;80.20;;;;;;5032873;28;20049;-46
2022/03/21 10:11:27;;;;;;;26.27;21.52;;;9.60;79.30;;;;;;5033155;28;20049;-51
2022/03/21 10:13:54;;;;;;;27.63;20.75;;;9.70;79.30;;;;;;5032877;28;20473;-46
2022/03/21 10:16:21;;;;;;;29.80;19.77;;;9.70;79.80;;;;;;5038178;28;20045;-50
2022/03/21 10:18:48;;;;;;;28.27;19.73;;;9.80;78.20;;;;;;5033043;28;20071;-48
2022/03/21 10:21:15;;;;;;;26.75;18.08;;;9.90;77.40;;;;;;5031694;28;20049;-53
2022/03/21 10:23:41;;;;;;;29.27;19.58;;;9.90;76.80;;;;;;5032955;28;20116;-45
2022/03/21 10:26:08;;;;;;;28.40;19.30;;;10.00;76.30;;;;;;5032954;28;20045;-53
2022/03/21 10:28:35;;;;;;;32.67;18.27;;;10.00;77.00;;;;;;5032801;28;20555;-45
2022/03/21 10:31:02;;;;;;;25.25;18.65;;;10.10;76.00;;;;;;5032785;28;20128;-48
2022/03/21 10:33:28;;;;;;;26.80;19.13;;;10.30;75.00;;;;;;5032733;28;20087;-49
2022/03/21 10:35:55;;;;;;;27.85;18.92;;;10.40;74.70;;;;;;5032802;28;20038;-44
2022/03/21 10:38:22;;;;;;;22.08;17.73;;;10.50;74.00;;;;;;5032890;28;20038;-48
2022/03/21 10:40:49;;;;;;;24.45;18.15;;;10.50;73.40;;;;;;5032618;28;20128;-53
2022/03/21 10:43:16;;;;;;;23.92;18.08;;;10.70;73.90;;;;;;5032689;28;20052;-46
2022/03/21 10:45:42;;;;;;;24.83;18.50;;;10.80;71.80;;;;;;5034743;28;20037;-51
2022/03/21 10:48:10;;;;;;;23.33;17.45;;;10.90;72.90;;;;;;5032779;28;20120;-47
2022/03/21 10:50:37;;;;;;;24.13;18.02;;;10.90;72.50;;;;;;5031533;28;20096;-50
2022/03/21 10:53:03;;;;;;;26.50;18.58;;;11.00;72.60;;;;;;5032616;28;20091;-50
2022/03/21 10:55:30;;;;;;;25.33;19.33;;;11.00;72.70;;;;;;5031273;28;20361;-48
2022/03/21 10:57:57;;;;;;;26.02;18.23;;;11.10;71.30;;;;;;5032723;28;20096;-52
2022/03/21 11:00:24;;;;;;;25.98;18.83;;;11.10;71.40;;;;;;5031271;28;20056;-46
2022/03/21 11:02:51;;;;;;;26.20;18.83;;;11.20;72.20;;;;;;5032605;28;20088;-48
2022/03/21 11:05:18;;;;;;;26.50;19.00;;;11.30;72.10;;;;;;5032533;28;20132;-49
2022/03/21 11:07:44;;;;;;;24.55;18.55;;;11.40;72.30;;;;;;5032359;28;20058;-47
2022/03/21 11:10:11;;;;;;;30.55;19.67;;;11.40;72.70;;;;;;5034727;28;20052;-48
2022/03/21 11:12:38;;;;;;;26.25;19.55;;;11.40;72.80;;;;;;5036250;28;20095;-48
2022/03/21 11:15:05;;;;;;;30.17;20.50;;;11.50;73.60;;;;;;5039257;28;20499;-52
2022/03/21 11:17:32;;;;;;;26.48;19.98;;;11.50;74.00;;;;;;5036276;28;20064;-49
2022/03/21 11:19:58;;;;;;;24.67;19.23;;;11.50;73.80;;;;;;5036186;28;20091;-44
2022/03/21 11:22:25;;;;;;;29.52;19.05;;;11.50;72.60;;;;;;5036088;28;20099;-50
2022/03/21 11:24:52;;;;;;;25.30;20.13;;;11.60;72.90;;;;;;5036002;28;20039;-52
2022/03/21 11:27:19;;;;;;;25.90;19.83;;;11.70;73.20;;;;;;5036000;28;20069;-50
2022/03/21 11:29:45;;;;;;;26.80;19.13;;;11.70;73.60;;;;;;5036039;28;20041;-47
2022/03/21 11:32:12;;;;;;;27.23;19.40;;;11.70;73.20;;;;;;5036217;28;20041;-47
2022/03/21 11:34:40;;;;;;;26.80;20.15;;;11.70;73.70;;;;;;5035771;28;20045;-49
2022/03/21 11:37:06;;;;;;;26.45;19.45;;;11.70;73.90;;;;;;5035904;28;20096;-50
2022/03/21 11:39:33;;;;;;;26.95;20.27;;;11.80;73.30;;;;;;5034898;28;20060;-48
2022/03/21 11:42:00;;;;;;;26.83;19.63;;;11.80;72.90;;;;;;5033104;28;20064;-44
2022/03/21 11:44:27;;;;;;;27.48;19.35;;;11.90;73.50;;;;;;5030924;28;20111;-46
2022/03/21 11:46:54;;;;;;;24.33;20.48;;;11.90;74.00;;;;;;5035600;28;20045;-49
2022/03/21 11:49:21;;;;;;;27.08;20.00;;;12.00;73.50;;;;;;5035683;28;20084;-49
2022/03/21 11:51:47;;;;;;;26.67;19.92;;;12.20;72.90;;;;;;5034587;28;20049;-47
2022/03/21 11:54:14;;;;;;;25.75;20.20;;;12.30;71.20;;;;;;5035462;28;20045;-45
2022/03/21 11:56:43;;;;;;;23.83;18.58;;;12.30;71.90;;;;;;5035484;28;20103;-46
2022/03/21 11:59:10;;;;;;;29.88;19.85;;;12.50;71.60;;;;;;5035380;28;20109;-46
2022/03/21 12:01:36;;;;;;;26.35;20.38;;;12.60;71.00;;;;;;5034314;28;20542;-47
2022/03/21 12:04:03;;;;;;;27.30;19.98;;;12.60;70.40;;;;;;5034901;28;20374;-45
2022/03/21 12:06:30;;;;;;;24.50;19.63;;;12.70;70.00;;;;;;5034897;28;20045;-44
2022/03/21 12:08:59;;;;;;;24.70;19.25;;;12.70;70.20;;;;;;5035045;28;20045;-46
2022/03/21 12:11:26;;;;;;;23.30;18.25;;;12.60;71.10;;;;;;5037369;28;20523;-43
2022/03/21 12:13:53;;;;;;;25.25;18.45;;;12.60;69.70;;;;;;5034737;28;20038;-49
2022/03/21 12:16:20;;;;;;;27.10;19.60;;;12.60;71.00;;;;;;5034741;28;20065;-45
2022/03/21 12:18:47;;;;;;;27.08;19.48;;;12.60;71.40;;;;;;5037663;28;20353;-47
2022/03/21 12:21:13;;;;;;;34.58;19.83;;;12.60;72.00;;;;;;5030548;28;20470;-44
2022/03/21 12:23:40;;;;;;;24.73;19.73;;;12.70;71.60;;;;;;5035356;28;20041;-47
2022/03/21 12:26:07;;;;;;;25.50;19.27;;;12.70;71.50;;;;;;5034896;28;20049;-45
2022/03/21 12:31:24;;;;;;;28.08;19.52;;;12.80;71.90;;;;;;5034550;28;20041;-46
2022/03/21 12:33:51;;;;;;;28.33;19.77;;;12.80;71.70;;;;;;5033064;28;20065;-46
2022/03/21 12:36:17;;;;;;;26.25;20.38;;;12.90;70.90;;;;;;5034379;28;20092;-47
2022/03/21 12:38:44;;;;;;;27.88;19.25;;;12.90;71.40;;;;;;5034317;28;20044;-44
2022/03/21 12:41:13;;;;;;;25.92;18.40;;;13.00;70.40;;;;;;5034293;28;20050;-42
2022/03/21 12:43:40;;;;;;;26.83;19.58;;;13.00;70.70;;;;;;5034199;28;20050;-47
2022/03/21 12:46:06;;;;;;;27.15;18.50;;;13.00;70.00;;;;;;5034166;28;20049;-46
2022/03/21 12:48:40;;;;;;;31.33;19.50;;;13.00;71.50;;;;;;5036846;28;20046;-46
2022/03/21 12:51:07;;;;;;;27.63;18.50;;;13.10;70.80;;;;;;5037287;28;20057;-47
2022/03/21 12:53:34;;;;;;;23.92;19.58;;;13.10;69.90;;;;;;5035630;28;20041;-45
2022/03/21 12:56:01;;;;;;;27.17;18.45;;;13.20;70.40;;;;;;5034273;28;20063;-48
2022/03/21 12:58:27;;;;;;;27.90;18.35;;;13.20;70.80;;;;;;5034236;28;20045;-49
2022/03/21 13:00:54;;;;;;;24.42;18.75;;;13.20;70.80;;;;;;5033700;28;20366;-51
2022/03/21 13:03:23;;;;;;;24.98;18.80;;;13.30;70.90;;;;;;5034293;28;20041;-51